Nearby METAR Reports


Data Updates Approximately Every Four (4) Hours

METAR is the international standard code format for hourly surface weather observations which is analogous to the SA coding currently used in the US. The acronym roughly translates from French as Aviation Routine Weather Report. SPECI is merely the code name given to METAR formatted products which are issued on a special non-routine basis as dictated by changing meteorological conditions. The SPECI acronym roughly translates as Aviation Selected Special Weather Report.
Source: NOAA-National Centers For Environmental Information.

KSLH - Cheboygan, Michigan, USA
Distance from station: W 9mi, 14km
Updated: 04/17/2024 2:15am
Light rain, Overcast
Light rain, Overcast
 Wind from ESE
Wind: ESE 15 mph, 24 km/h, Gust: 18 mph, 30 km/h
Temperature: 43°F, 6°C
Wind Chill: 36°F, 2°C
Dew Point: 37°F, 3°C
Humidity: 81%
Barometer: 30.02 inHg, 1016.6 hPa
Summary: Light rain
Clouds: Overcast
Visibility: 7 miles, 11 km
Cloud details: Partly cloudy 6000 ft
Mostly cloudy 7000 ft
Overcast 8500 ft
2024/04/17 06:15 KSLH 170615Z AUTO 11013G16KT 7SM -RA SCT060 BKN070 OVC085 06/03 A3002 RMK AO2
KMCD - Mackinac Island, Michigan, USA
Distance from station: NW 19mi, 31km
Updated: 04/17/2024 2:15am
Light snow, Overcast
Light snow, Overcast
 Wind from E
Wind: E 21 mph, 33 km/h, Gust: 32 mph, 52 km/h
Temperature: 39°F, 4°C
Wind Chill: 29°F, -2°C
Dew Point: 36°F, 2°C
Humidity: 87%
Barometer: 30.00 inHg, 1015.9 hPa
Summary: Light Snow
Clouds: Overcast
Visibility: 5 miles, 8 km
Cloud details: Mostly cloudy 6500 ft
Mostly cloudy 7500 ft
Overcast 10000 ft
2024/04/17 06:15 KMCD 170615Z AUTO 10018G28KT 5SM -SN BKN065 BKN075 OVC100 04/02 A3000 RMK AO2 P0002 T00430016
 
KDRM - Drummond Is, Michigan, USA
Distance from station: NE 36mi, 59km
Updated: 04/17/2024 2:15am
Overcast
Overcast
 Wind from E
Wind: E 9 mph, 15 km/h
Temperature: 46°F, 8°C
Wind Chill: 41°F, 5°C
Dew Point: 30°F, -1°C
Humidity: 53%
Barometer: 30.06 inHg, 1017.9 hPa
Clouds: Overcast
Visibility: 10 miles, 16 km
Cloud details: Mostly cloudy 9000 ft
Overcast 11000 ft
2024/04/17 06:15 KDRM 170615Z AUTO 08008KT 10SM BKN090 OVC110 08/M01 A3006 RMK AO2 T00761009
KPZQ - Rogers City, Michigan, USA
Distance from station: SE 31mi, 50km
Updated: 04/17/2024 2:15am
Light rain, Overcast
Light rain, Overcast
 Wind from ESE
Wind: ESE 14 mph, 22 km/h, Gust: 20 mph, 31 km/h
Temperature: 45°F, 7°C
Wind Chill: 39°F, 4°C
Dew Point: 36°F, 2°C
Humidity: 71%
Barometer: 30.07 inHg, 1018.3 hPa
Summary: Light rain
Clouds: Overcast
Visibility: 7 miles, 11 km
Cloud details: Overcast 7000 ft
2024/04/17 06:15 KPZQ 170615Z AUTO 11012G17KT 7SM -RA OVC070 07/02 A3007 RMK AO2 T00670021
 
CYAM - Sault Ste Marie, Ontario, Canada
Distance from station: N 56mi, 90km
Updated: 04/16/2024 8:00am
NOT Current
Mostly cloudy
Mostly cloudy
 Wind from varies
Wind: varies 2 mph, 4 km/h
Temperature: 32°F, 0°C
Dew Point: 32°F, 0°C
Humidity: 100%
Barometer: 30.23 inHg, 1023.7 hPa
Clouds: Mostly cloudy
Visibility: 20 miles, 32 km
Cloud details: Few Clouds 17000 ft
Mostly cloudy 25000 ft
2024/04/16 12:00 CYAM 161200Z VRB02KT 20SM FEW170 BKN250 00/00 A3023 RMK AC2CI4 SLP247
KANJ - Sault Ste Marie, Michigan, USA
Distance from station: N 56mi, 89km
Updated: 04/17/2024 1:55am
Mostly cloudy
Mostly cloudy
 Wind from ESE
Wind: ESE 13 mph, 20 km/h, Gust: 31 mph, 50 km/h
Temperature: 48°F, 9°C
Wind Chill: 43°F, 6°C
Dew Point: 30°F, -1°C
Humidity: 50%
Barometer: 30.03 inHg, 1016.9 hPa
Clouds: Mostly cloudy
Visibility: 10 miles, 16 km
Cloud details: Mostly cloudy 11000 ft
2024/04/17 05:55 KANJ 170555Z AUTO 11011G27KT 10SM BKN110 09/M01 A3003 RMK AO2 PK WND 12027/0553 PRESFR SLP171 T00891011 10117 20083 56011
 
KGLR - Gaylord, Michigan, USA
Distance from station: SSW 48mi, 77km
Updated: 04/17/2024 1:53am
Light rain, Overcast
Light rain, Overcast
 Wind from E
Wind: E 10 mph, 17 km/h, Gust: 23 mph, 37 km/h
Temperature: 43°F, 6°C
Wind Chill: 37°F, 3°C
Dew Point: 34°F, 1°C
Humidity: 71%
Barometer: 29.94 inHg, 1013.9 hPa
Summary: Light rain
Clouds: Overcast
Visibility: 10 miles, 16 km
Cloud details: Few Clouds 5000 ft
Mostly cloudy 10000 ft
Overcast 11000 ft
2024/04/17 05:53 KGLR 170553Z AUTO 08009G20KT 10SM -RA FEW050 BKN100 OVC110 06/01 A2994 RMK AO2 PRESFR SLP143 P0004 60009 T00610006 10117 20061 58023
KPLN - Pellston, Michigan, USA
Distance from station: WSW 24mi, 38km
Updated: 04/17/2024 1:54am
Light rain, Overcast
Light rain, Overcast
 Wind from ESE
Wind: ESE 17 mph, 28 km/h, Gust: 28 mph, 44 km/h
Temperature: 45°F, 7°C
Wind Chill: 38°F, 3°C
Dew Point: 36°F, 2°C
Humidity: 71%
Barometer: 29.99 inHg, 1015.6 hPa
Summary: Light rain
Clouds: Overcast
Visibility: 10 miles, 16 km
Cloud details: Few Clouds 5000 ft
Mostly cloudy 7000 ft
Overcast 9500 ft
2024/04/17 05:54 KPLN 170554Z AUTO 11015G24KT 10SM -RA FEW050 BKN070 OVC095 07/02 A2999 RMK AO2 SLP159 P0005 60007 T00720022 10117 20072 58009